Time;durP1;ratioP1;P1;durP2;ratioP2;P2;SDS_P1;SDS_P2;PMS_P1;PMS_P2;Temp;Humidity;BMP_temperature;BMP_pressure;BME280_temperature;BME280_humidity;BME280_pressure;Samples;Min_cycle;Max_cycle;Signal;HPM_P1;HPM_P2
2024/04/09 00:01:01;;;;;;;13.70;4.97;;;20.40;80.00;;;;;;5445371;26;20256;-69
2024/04/09 00:03:29;;;;;;;17.00;5.03;;;20.30;80.40;;;;;;5475443;26;20230;-69
2024/04/09 00:05:54;;;;;;;17.53;5.00;;;20.30;81.70;;;;;;5445469;26;20526;-69
2024/04/09 00:08:21;;;;;;;18.17;5.17;;;20.20;81.40;;;;;;5444396;26;20440;-68
2024/04/09 00:10:47;;;;;;;12.63;4.27;;;20.10;81.10;;;;;;5445127;26;20222;-69
2024/04/09 00:13:14;;;;;;;15.80;4.33;;;20.20;82.20;;;;;;5474713;26;20548;-69
2024/04/09 00:15:40;;;;;;;17.73;4.30;;;20.10;81.90;;;;;;5475137;26;20230;-68
2024/04/09 00:18:12;;;;;;;16.90;4.33;;;20.10;81.90;;;;;;5476400;26;20927;-69
2024/04/09 00:20:39;;;;;;;13.50;4.50;;;20.10;81.10;;;;;;5475291;26;20503;-69
2024/04/09 00:23:05;;;;;;;16.47;4.40;;;20.10;78.80;;;;;;5476595;26;20585;-69
2024/04/09 00:25:31;;;;;;;10.10;4.40;;;19.90;73.90;;;;;;5415189;26;20893;-69
2024/04/09 00:27:59;;;;;;;16.93;4.50;;;20.10;76.10;;;;;;5474974;26;20273;-69
2024/04/09 00:30:27;;;;;;;13.83;4.40;;;20.20;76.20;;;;;;5445074;26;20487;-70
2024/04/09 00:32:53;;;;;;;12.60;4.33;;;20.10;74.60;;;;;;5473953;26;20451;-68
2024/04/09 00:35:21;;;;;;;11.53;4.70;;;20.30;75.50;;;;;;5474437;26;21008;-69
2024/04/09 00:37:55;;;;;;;12.17;4.40;;;20.30;75.40;;;;;;5416935;26;20218;-69
2024/04/09 00:40:25;;;;;;;12.17;3.40;;;20.40;76.50;;;;;;5474817;26;20528;-69
2024/04/09 00:42:52;;;;;;;11.87;4.97;;;20.30;75.70;;;;;;5444337;26;21126;-69
2024/04/09 00:45:22;;;;;;;14.17;3.80;;;20.30;76.00;;;;;;5475699;26;20507;-69
2024/04/09 00:47:49;;;;;;;9.97;3.17;;;20.30;76.90;;;;;;5476443;26;20522;-68
2024/04/09 00:50:17;;;;;;;10.00;3.90;;;20.30;77.50;;;;;;5444324;26;20510;-68
2024/04/09 00:52:45;;;;;;;9.50;4.10;;;20.10;76.00;;;;;;5413927;26;20455;-71
2024/04/09 00:55:11;;;;;;;9.80;3.70;;;20.10;77.30;;;;;;5444166;26;20990;-68
2024/04/09 00:57:41;;;;;;;12.97;4.10;;;20.10;76.70;;;;;;5473940;26;20463;-68
2024/04/09 01:00:12;;;;;;;9.53;3.53;;;19.90;76.20;;;;;;5474215;26;20985;-68
2024/04/09 01:02:38;;;;;;;10.17;3.50;;;19.80;76.60;;;;;;5474089;26;20523;-69
2024/04/09 01:05:05;;;;;;;11.97;3.80;;;19.90;78.10;;;;;;5473807;26;20439;-68
2024/04/09 01:07:32;;;;;;;12.80;4.23;;;20.00;76.40;;;;;;5444232;26;20456;-68
2024/04/09 01:09:58;;;;;;;9.43;3.70;;;20.00;75.80;;;;;;5414178;26;20467;-70
2024/04/09 01:12:24;;;;;;;10.03;3.80;;;20.00;77.20;;;;;;5474152;26;20569;-69
2024/04/09 01:14:50;;;;;;;13.60;4.10;;;20.00;77.50;;;;;;5444020;26;20595;-69
2024/04/09 01:17:16;;;;;;;8.63;3.67;;;19.70;76.20;;;;;;5473743;26;20562;-69
2024/04/09 01:19:41;;;;;;;11.80;3.77;;;19.60;76.00;;;;;;5439806;26;20591;-69
2024/04/09 01:22:08;;;;;;;11.20;3.80;;;19.60;77.40;;;;;;5442605;26;20292;-69
2024/04/09 01:24:34;;;;;;;10.27;3.77;;;19.50;75.20;;;;;;5443971;26;20334;-68
2024/04/09 01:27:00;;;;;;;8.80;3.90;;;19.40;75.60;;;;;;5475403;26;20989;-69
2024/04/09 01:29:26;;;;;;;11.33;4.33;;;19.60;77.90;;;;;;5444076;26;20505;-69
2024/04/09 01:31:52;;;;;;;10.80;4.00;;;19.60;76.60;;;;;;5473603;26;20571;-70
2024/04/09 01:34:21;;;;;;;15.03;3.57;;;19.60;75.80;;;;;;5473590;26;21500;-68
2024/04/09 01:36:48;;;;;;;7.93;3.43;;;19.70;77.00;;;;;;5444606;26;20448;-69
2024/04/09 01:39:14;;;;;;;13.80;3.23;;;19.70;77.50;;;;;;5474060;26;20451;-69
2024/04/09 01:41:41;;;;;;;5.37;2.53;;;19.70;76.10;;;;;;5473405;26;21336;-69
2024/04/09 01:44:10;;;;;;;11.50;4.60;;;19.70;76.40;;;;;;5475750;26;20478;-70
2024/04/09 01:46:37;;;;;;;12.07;3.80;;;19.60;75.90;;;;;;5473878;26;20432;-69
2024/04/09 01:49:04;;;;;;;15.47;3.77;;;19.70;75.90;;;;;;5474257;26;20565;-68
2024/04/09 01:51:29;;;;;;;6.77;3.17;;;19.60;75.20;;;;;;5473170;26;20507;-69
2024/04/09 01:53:55;;;;;;;15.13;4.10;;;19.80;76.40;;;;;;5443405;26;20826;-69
2024/04/09 01:56:21;;;;;;;12.77;4.07;;;19.80;76.80;;;;;;5413012;26;20230;-70
2024/04/09 01:58:47;;;;;;;8.87;3.17;;;19.80;77.00;;;;;;5413612;26;20214;-70
2024/04/09 02:01:14;;;;;;;17.03;3.87;;;19.80;77.20;;;;;;5442992;26;20503;-67
2024/04/09 02:03:40;;;;;;;13.30;3.23;;;19.70;76.60;;;;;;5443704;26;20280;-69
2024/04/09 02:06:07;;;;;;;10.90;4.43;;;19.80;77.50;;;;;;5472608;26;20948;-68
2024/04/09 02:08:33;;;;;;;9.57;3.97;;;19.80;78.30;;;;;;5472902;26;21347;-67
2024/04/09 02:10:59;;;;;;;18.93;3.90;;;19.80;77.80;;;;;;5475180;26;20447;-66
2024/04/09 02:13:25;;;;;;;12.53;3.63;;;19.60;76.60;;;;;;5442112;26;20548;-68
2024/04/09 02:15:52;;;;;;;10.93;3.50;;;19.70;77.20;;;;;;5412960;26;20447;-69
2024/04/09 02:18:17;;;;;;;12.33;3.90;;;19.60;75.60;;;;;;5472982;26;20574;-68
2024/04/09 02:20:44;;;;;;;13.00;4.33;;;19.60;75.90;;;;;;5442410;26;20883;-69
2024/04/09 02:23:12;;;;;;;8.83;3.70;;;19.70;76.00;;;;;;5442745;26;20238;-68
2024/04/09 02:25:41;;;;;;;15.20;3.23;;;19.80;77.20;;;;;;5472740;26;21008;-67
2024/04/09 02:28:08;;;;;;;11.53;4.00;;;19.80;76.50;;;;;;5412677;26;20520;-68
2024/04/09 02:30:34;;;;;;;12.33;3.97;;;19.90;75.90;;;;;;5442745;26;20439;-69
2024/04/09 02:32:59;;;;;;;9.47;2.93;;;19.70;76.00;;;;;;5474435;26;20588;-68
2024/04/09 02:35:25;;;;;;;13.27;4.20;;;19.90;76.90;;;;;;5442406;26;20443;-67
2024/04/09 02:37:51;;;;;;;12.30;3.50;;;19.90;77.30;;;;;;5442474;26;20230;-69
2024/04/09 02:40:17;;;;;;;10.07;3.80;;;19.90;77.10;;;;;;5472673;26;20264;-68
2024/04/09 02:42:43;;;;;;;10.10;3.40;;;20.00;77.80;;;;;;5442231;26;20510;-69
2024/04/09 02:45:09;;;;;;;8.33;4.03;;;19.90;77.40;;;;;;5442816;26;20768;-68
2024/04/09 02:47:35;;;;;;;17.00;4.27;;;19.70;77.80;;;;;;5472571;26;20440;-68
2024/04/09 02:50:02;;;;;;;10.73;3.63;;;19.60;78.80;;;;;;5472731;26;20317;-69
2024/04/09 02:52:28;;;;;;;10.50;5.10;;;19.60;78.30;;;;;;5471986;26;20948;-68
2024/04/09 02:54:53;;;;;;;11.50;4.73;;;19.70;78.60;;;;;;5472433;26;20521;-68
2024/04/09 02:57:19;;;;;;;13.97;4.50;;;19.60;78.90;;;;;;5471609;26;20298;-69
2024/04/09 02:59:45;;;;;;;14.13;5.07;;;19.50;78.20;;;;;;5473150;26;20270;-69
2024/04/09 03:02:10;;;;;;;13.07;4.17;;;19.40;77.20;;;;;;5475686;26;20760;-69
2024/04/09 03:04:36;;;;;;;13.50;4.53;;;19.40;79.60;;;;;;5475414;26;20318;-67
2024/04/09 03:07:03;;;;;;;10.70;4.50;;;19.40;78.50;;;;;;5475766;26;20214;-70
2024/04/09 03:09:30;;;;;;;14.93;4.73;;;19.40;78.60;;;;;;5416035;26;20716;-68
2024/04/09 03:11:56;;;;;;;10.47;3.83;;;19.30;76.40;;;;;;5445945;26;20455;-68
2024/04/09 03:14:23;;;;;;;16.27;4.83;;;19.30;77.30;;;;;;5445419;26;20592;-69
2024/04/09 03:16:49;;;;;;;9.03;4.10;;;19.30;77.20;;;;;;5475329;26;20443;-69
2024/04/09 03:19:17;;;;;;;19.30;4.67;;;19.40;77.20;;;;;;5475636;26;20447;-68
2024/04/09 03:21:42;;;;;;;21.63;5.40;;;19.30;76.60;;;;;;5441850;26;20515;-68
2024/04/09 03:24:08;;;;;;;13.50;4.67;;;19.20;75.30;;;;;;5454784;26;20455;-68
2024/04/09 03:26:34;;;;;;;14.43;5.70;;;19.40;75.70;;;;;;5477195;26;20222;-69
2024/04/09 03:28:59;;;;;;;18.10;6.40;;;19.30;76.60;;;;;;5477281;26;20261;-68
2024/04/09 03:31:25;;;;;;;14.33;4.93;;;19.30;76.40;;;;;;5414830;26;20507;-68
2024/04/09 03:33:51;;;;;;;15.00;5.30;;;19.30;76.90;;;;;;5477077;26;20727;-69
2024/04/09 03:36:16;;;;;;;15.93;5.80;;;19.30;76.80;;;;;;5477429;26;20443;-69
2024/04/09 03:38:43;;;;;;;18.47;4.60;;;19.30;76.90;;;;;;5477146;26;20739;-70
2024/04/09 03:41:09;;;;;;;15.13;4.73;;;19.40;77.60;;;;;;5477349;26;20226;-68
2024/04/09 03:43:34;;;;;;;12.53;4.37;;;19.40;77.60;;;;;;5476791;26;20532;-69
2024/04/09 03:46:13;;;;;;;14.53;5.30;;;19.50;78.40;;;;;;5475428;26;20969;-70
2024/04/09 03:48:42;;;;;;;15.27;5.17;;;19.30;79.70;;;;;;5477064;26;20215;-67
2024/04/09 03:51:08;;;;;;;16.17;4.90;;;19.10;80.60;;;;;;5477326;26;20483;-69
2024/04/09 03:53:34;;;;;;;18.40;4.73;;;19.10;81.30;;;;;;5477593;26;20507;-69
2024/04/09 03:56:04;;;;;;;15.90;5.70;;;19.10;81.50;;;;;;5478348;26;20447;-69
2024/04/09 03:58:31;;;;;;;18.00;5.50;;;19.10;82.10;;;;;;5446375;26;20218;-69
2024/04/09 04:01:00;;;;;;;19.40;4.90;;;19.00;82.80;;;;;;5445138;26;20451;-69
2024/04/09 04:03:26;;;;;;;17.20;5.90;;;19.00;82.90;;;;;;5477437;26;20459;-68
2024/04/09 04:05:53;;;;;;;22.13;5.20;;;19.00;82.70;;;;;;5477124;26;20447;-69
2024/04/09 04:08:20;;;;;;;15.57;5.20;;;18.90;82.40;;;;;;5475304;26;20432;-69
2024/04/09 04:10:56;;;;;;;14.93;5.20;;;18.90;82.80;;;;;;5474566;26;20440;-68
2024/04/09 04:13:27;;;;;;;18.87;5.50;;;18.90;83.10;;;;;;5444619;26;20463;-69
2024/04/09 04:16:09;;;;;;;16.97;5.47;;;18.90;82.70;;;;;;5476563;26;20491;-69
2024/04/09 04:18:37;;;;;;;19.03;5.50;;;18.90;82.90;;;;;;5475005;26;20451;-69
2024/04/09 04:21:04;;;;;;;21.43;5.47;;;18.90;82.10;;;;;;5474785;26;20447;-70
2024/04/09 04:23:30;;;;;;;16.07;5.03;;;18.90;82.70;;;;;;5445092;26;20463;-68
2024/04/09 04:26:02;;;;;;;13.70;5.60;;;18.80;84.30;;;;;;5474189;26;20566;-68
2024/04/09 04:28:31;;;;;;;12.70;5.07;;;18.90;83.90;;;;;;5475244;26;20439;-69
2024/04/09 04:30:57;;;;;;;13.80;4.60;;;18.80;84.20;;;;;;5476945;26;20447;-68
2024/04/09 04:33:23;;;;;;;15.90;5.23;;;18.70;84.50;;;;;;5474703;26;20522;-69
2024/04/09 04:35:50;;;;;;;17.80;5.20;;;18.70;85.20;;;;;;5475187;26;20793;-69
2024/04/09 04:38:16;;;;;;;17.07;6.57;;;18.70;85.50;;;;;;5444465;26;20214;-69
2024/04/09 04:40:45;;;;;;;14.07;5.00;;;18.70;85.80;;;;;;5444441;26;20503;-69
2024/04/09 04:43:13;;;;;;;28.40;6.93;;;18.50;85.80;;;;;;5445021;26;20226;-68
2024/04/09 04:45:42;;;;;;;13.70;5.13;;;18.40;87.30;;;;;;5418260;26;20561;-67
2024/04/09 04:48:09;;;;;;;16.40;5.67;;;18.40;88.30;;;;;;5474362;26;21098;-69
2024/04/09 04:50:35;;;;;;;15.57;5.30;;;18.30;88.00;;;;;;5443888;26;20459;-69
2024/04/09 04:53:01;;;;;;;9.50;4.67;;;18.30;90.00;;;;;;5444268;26;20566;-68
2024/04/09 04:55:27;;;;;;;14.67;5.20;;;18.30;89.30;;;;;;5443564;26;20257;-67
2024/04/09 04:57:53;;;;;;;18.07;5.03;;;18.30;88.80;;;;;;5443073;26;20954;-69
2024/04/09 05:00:19;;;;;;;22.63;6.93;;;18.30;88.90;;;;;;5473901;26;20487;-68
2024/04/09 05:02:45;;;;;;;26.40;7.00;;;18.40;89.10;;;;;;5473767;26;20507;-70
2024/04/09 05:05:12;;;;;;;12.67;5.40;;;18.30;90.00;;;;;;5444121;26;20301;-69
2024/04/09 05:07:38;;;;;;;25.37;7.00;;;18.30;89.70;;;;;;5475758;26;20206;-68
2024/04/09 05:10:04;;;;;;;16.53;5.50;;;18.20;88.80;;;;;;5475953;26;20496;-69
2024/04/09 05:12:30;;;;;;;18.27;5.73;;;18.40;90.00;;;;;;5475192;26;20456;-68
2024/04/09 05:14:56;;;;;;;19.37;5.00;;;18.40;90.00;;;;;;5474710;26;20455;-69
2024/04/09 05:17:21;;;;;;;19.20;5.80;;;18.30;89.90;;;;;;5474488;26;20264;-70
2024/04/09 05:19:50;;;;;;;13.70;6.10;;;18.30;90.20;;;;;;5444095;26;20226;-70
2024/04/09 05:22:17;;;;;;;25.40;5.27;;;18.40;90.00;;;;;;5472504;26;20350;-68
2024/04/09 05:24:44;;;;;;;22.13;4.50;;;18.30;89.80;;;;;;5413892;26;20447;-67
2024/04/09 05:27:10;;;;;;;10.93;4.20;;;18.50;89.30;;;;;;5473931;26;20451;-70
2024/04/09 05:29:36;;;;;;;12.27;4.10;;;18.50;88.90;;;;;;5475498;26;20452;-69
2024/04/09 05:32:02;;;;;;;12.30;3.93;;;18.70;88.80;;;;;;5417118;26;20451;-69
2024/04/09 05:34:27;;;;;;;12.73;3.37;;;18.90;88.60;;;;;;5421083;26;20234;-69
2024/04/09 05:36:54;;;;;;;54.10;25.93;;;18.90;88.40;;;;;;5413679;26;20245;-68
2024/04/09 05:39:19;;;;;;;24.77;10.90;;;19.00;88.80;;;;;;5443716;26;20839;-69
2024/04/09 05:41:45;;;;;;;10.23;4.13;;;19.00;89.10;;;;;;5473136;26;20479;-69
2024/04/09 05:44:11;;;;;;;10.00;4.03;;;19.00;89.20;;;;;;5472952;26;20238;-70
2024/04/09 05:46:39;;;;;;;7.60;2.67;;;19.10;90.10;;;;;;5443570;26;20226;-67
2024/04/09 05:49:05;;;;;;;11.90;2.50;;;19.20;89.60;;;;;;5474614;26;20555;-68
2024/04/09 05:51:31;;;;;;;11.03;3.10;;;19.20;89.90;;;;;;5441746;26;20880;-68
2024/04/09 05:53:57;;;;;;;4.93;2.57;;;19.40;90.00;;;;;;5443359;26;20226;-69
2024/04/09 05:56:23;;;;;;;10.50;2.77;;;19.40;89.50;;;;;;5472646;26;20238;-70
2024/04/09 05:58:48;;;;;;;10.70;3.40;;;19.40;89.70;;;;;;5472508;26;20492;-68
2024/04/09 06:01:17;;;;;;;7.57;3.00;;;19.40;89.90;;;;;;5474551;26;20314;-69
2024/04/09 06:03:42;;;;;;;6.83;2.33;;;19.30;90.70;;;;;;5474391;26;20583;-68
2024/04/09 06:06:09;;;;;;;10.20;3.47;;;19.20;90.40;;;;;;5472972;26;20496;-69
2024/04/09 06:08:34;;;;;;;8.93;3.00;;;19.20;90.80;;;;;;5475042;26;20431;-70
2024/04/09 06:11:03;;;;;;;11.80;3.80;;;19.20;91.10;;;;;;5473347;26;20550;-69
2024/04/09 06:13:29;;;;;;;9.30;2.90;;;19.20;91.00;;;;;;5473136;26;20237;-69
2024/04/09 06:15:54;;;;;;;5.10;2.53;;;19.00;91.60;;;;;;5472534;26;20564;-70
2024/04/09 06:18:20;;;;;;;4.60;2.10;;;18.90;92.20;;;;;;5412539;26;20248;-70
2024/04/09 06:20:46;;;;;;;7.63;2.50;;;18.80;92.40;;;;;;5474162;26;20735;-69
2024/04/09 06:23:11;;;;;;;6.83;2.67;;;18.80;92.60;;;;;;5442423;26;20264;-69
2024/04/09 06:25:38;;;;;;;7.73;2.23;;;18.80;92.90;;;;;;5472385;26;20218;-70
2024/04/09 06:28:05;;;;;;;5.20;1.80;;;18.70;93.20;;;;;;5442635;26;20281;-69
2024/04/09 06:30:30;;;;;;;10.33;3.50;;;18.90;93.60;;;;;;5472870;26;20783;-70
2024/04/09 06:32:56;;;;;;;8.03;2.33;;;19.10;93.50;;;;;;5441418;26;20521;-71
2024/04/09 06:35:22;;;;;;;7.77;2.53;;;19.00;93.50;;;;;;5475874;26;20217;-68
2024/04/09 06:37:47;;;;;;;10.73;2.33;;;18.90;93.90;;;;;;5445647;26;20682;-69
2024/04/09 06:40:13;;;;;;;7.40;2.60;;;18.90;93.90;;;;;;5475882;26;20257;-71
2024/04/09 06:42:38;;;;;;;11.53;2.40;;;18.80;94.10;;;;;;5445167;26;20264;-69
2024/04/09 06:45:05;;;;;;;6.80;1.87;;;18.60;94.90;;;;;;5445641;26;20226;-71
2024/04/09 06:47:31;;;;;;;5.77;1.90;;;18.60;95.20;;;;;;5477224;26;20766;-70
2024/04/09 06:49:58;;;;;;;7.40;2.40;;;18.40;95.80;;;;;;5445150;26;20463;-69
2024/04/09 06:52:24;;;;;;;6.33;2.17;;;18.50;96.40;;;;;;5475321;26;20222;-69
2024/04/09 06:54:50;;;;;;;4.90;1.80;;;18.50;96.40;;;;;;5475040;26;20451;-70
2024/04/09 06:57:15;;;;;;;5.70;2.00;;;18.60;96.80;;;;;;5445205;26;20511;-70
2024/04/09 06:59:41;;;;;;;5.00;2.33;;;18.50;97.30;;;;;;5445014;26;20264;-70
2024/04/09 07:02:08;;;;;;;5.37;2.20;;;18.50;97.80;;;;;;5445122;26;20290;-69
2024/04/09 07:04:33;;;;;;;5.23;2.43;;;18.60;98.10;;;;;;5445174;26;20271;-70
2024/04/09 07:06:59;;;;;;;6.93;2.70;;;18.50;98.40;;;;;;5475460;26;21400;-71
2024/04/09 07:09:25;;;;;;;6.30;2.33;;;18.40;99.20;;;;;;5445203;26;20219;-70
2024/04/09 07:11:50;;;;;;;6.37;2.33;;;18.50;99.40;;;;;;5477166;26;20219;-70
2024/04/09 07:14:16;;;;;;;10.77;3.37;;;18.70;99.60;;;;;;5416297;26;20234;-71
2024/04/09 07:16:47;;;;;;;6.73;2.50;;;18.80;99.50;;;;;;5476778;26;20214;-70
2024/04/09 07:19:12;;;;;;;5.70;2.30;;;18.70;99.70;;;;;;5477551;26;20565;-70
2024/04/09 07:21:38;;;;;;;7.93;2.60;;;18.90;99.60;;;;;;5446222;26;21344;-71
2024/04/09 07:24:05;;;;;;;10.40;2.83;;;18.90;99.50;;;;;;5445089;26;20230;-71
2024/04/09 07:26:31;;;;;;;7.97;2.83;;;19.10;99.80;;;;;;5476438;26;20771;-71
2024/04/09 07:28:57;;;;;;;7.67;2.40;;;19.20;99.40;;;;;;5475647;26;20575;-70
2024/04/09 07:31:22;;;;;;;6.30;2.30;;;19.20;99.50;;;;;;5474893;26;20443;-71
2024/04/09 07:33:49;;;;;;;6.37;2.07;;;19.20;99.50;;;;;;5445071;26;20306;-70
2024/04/09 07:36:15;;;;;;;6.00;2.43;;;18.90;99.80;;;;;;5474133;26;20290;-69
2024/04/09 07:38:41;;;;;;;4.77;2.60;;;18.70;99.90;;;;;;5475459;26;20431;-70
2024/04/09 07:41:06;;;;;;;5.77;2.17;;;18.50;99.90;;;;;;5444638;26;20549;-70
2024/04/09 07:43:32;;;;;;;7.80;2.40;;;18.50;99.90;;;;;;5444506;26;20456;-69
2024/04/09 07:45:59;;;;;;;8.03;3.07;;;18.30;99.90;;;;;;5443855;26;21167;-69
2024/04/09 07:48:25;;;;;;;3.83;2.47;;;18.20;99.90;;;;;;5475026;26;20260;-70
2024/04/09 07:50:54;;;;;;;5.53;2.33;;;18.00;99.90;;;;;;5475087;26;20527;-68
2024/04/09 07:53:21;;;;;;;4.23;2.07;;;17.90;99.90;;;;;;5476685;26;20585;-70
2024/04/09 07:55:46;;;;;;;5.03;1.77;;;17.50;99.90;;;;;;5444081;26;20576;-69
2024/04/09 07:58:12;;;;;;;7.20;1.90;;;17.20;99.90;;;;;;5414669;26;20532;-70
2024/04/09 08:00:39;;;;;;;4.13;1.40;;;16.80;99.90;;;;;;5474893;26;20665;-70
2024/04/09 08:03:05;;;;;;;5.03;1.50;;;16.60;99.90;;;;;;5444583;26;20455;-71
2024/04/09 08:05:31;;;;;;;3.37;0.90;;;16.30;99.90;;;;;;5476486;26;20443;-69
2024/04/09 08:07:56;;;;;;;2.80;0.90;;;16.20;99.90;;;;;;5474436;26;20502;-70
2024/04/09 08:10:22;;;;;;;4.57;0.87;;;15.90;99.90;;;;;;5444571;26;20222;-70
2024/04/09 08:12:54;;;;;;;3.63;0.80;;;15.50;99.90;;;;;;5474499;26;20272;-70
2024/04/09 08:15:20;;;;;;;2.10;0.90;;;15.30;99.90;;;;;;5476540;26;20322;-70
2024/04/09 08:17:48;;;;;;;4.07;0.80;;;15.20;99.90;;;;;;5475982;26;20509;-69
2024/04/09 08:20:15;;;;;;;2.43;0.63;;;15.20;99.90;;;;;;5415235;26;20470;-70
2024/04/09 08:22:41;;;;;;;1.20;0.80;;;15.20;99.90;;;;;;5444309;26;20448;-70
2024/04/09 08:25:08;;;;;;;2.10;0.80;;;15.20;99.90;;;;;;5474968;26;20451;-70
2024/04/09 08:27:38;;;;;;;3.47;0.77;;;15.00;99.90;;;;;;5474829;26;20444;-70
2024/04/09 08:30:13;;;;;;;2.33;0.80;;;14.90;99.90;;;;;;5475201;26;20447;-69
2024/04/09 08:32:40;;;;;;;2.33;0.60;;;14.70;99.90;;;;;;5476803;26;20509;-68
2024/04/09 08:35:06;;;;;;;3.33;0.90;;;14.60;99.90;;;;;;5474726;26;20458;-69
2024/04/09 08:37:32;;;;;;;3.13;1.03;;;14.50;99.90;;;;;;5444568;26;20504;-70
2024/04/09 08:39:58;;;;;;;1.70;1.03;;;14.40;99.90;;;;;;5474901;26;20237;-70
2024/04/09 08:42:24;;;;;;;2.90;0.70;;;14.40;99.90;;;;;;5474855;26;20500;-69
2024/04/09 08:44:50;;;;;;;2.47;0.60;;;14.50;99.90;;;;;;5475825;26;20758;-69
2024/04/09 08:47:20;;;;;;;12.40;7.57;;;14.40;99.90;;;;;;5414694;26;20447;-69
2024/04/09 08:49:49;;;;;;;2.70;1.23;;;14.60;99.90;;;;;;5476467;26;20446;-69
2024/04/09 08:52:19;;;;;;;1.40;0.70;;;14.50;99.90;;;;;;5474896;26;20441;-68
2024/04/09 08:54:45;;;;;;;1.00;0.50;;;14.50;99.90;;;;;;5474365;26;21092;-69
2024/04/09 08:57:11;;;;;;;2.80;1.00;;;14.40;99.90;;;;;;5443530;26;20645;-69
2024/04/09 08:59:37;;;;;;;2.97;0.60;;;14.20;99.90;;;;;;5474473;26;20855;-68
2024/04/09 09:02:05;;;;;;;1.60;0.70;;;14.20;99.90;;;;;;5443738;26;20230;-69
2024/04/09 09:04:36;;;;;;;1.60;0.60;;;14.10;99.90;;;;;;5414335;26;20964;-69
2024/04/09 09:07:04;;;;;;;2.30;0.60;;;14.10;99.90;;;;;;5414301;26;20506;-68
2024/04/09 09:09:30;;;;;;;1.23;0.70;;;14.10;99.90;;;;;;5443683;26;20526;-69
2024/04/09 09:12:03;;;;;;;8.00;1.63;;;14.10;99.90;;;;;;5444091;26;21089;-69
2024/04/09 09:14:29;;;;;;;0.80;0.50;;;14.20;99.90;;;;;;5443850;26;20241;-69
2024/04/09 09:17:05;;;;;;;0.90;0.50;;;14.20;99.90;;;;;;5413776;26;20558;-68
2024/04/09 09:19:33;;;;;;;3.03;0.60;;;13.90;99.90;;;;;;5473909;26;20452;-69
2024/04/09 09:22:06;;;;;;;1.83;0.60;;;13.80;99.90;;;;;;5444109;26;20447;-69
2024/04/09 09:24:32;;;;;;;1.73;0.50;;;13.80;99.90;;;;;;5445338;26;20534;-69
2024/04/09 09:27:05;;;;;;;1.00;0.50;;;13.60;99.90;;;;;;5472141;26;20569;-69
2024/04/09 09:29:32;;;;;;;1.20;0.60;;;13.70;99.90;;;;;;5443039;26;20504;-68
2024/04/09 09:31:59;;;;;;;2.10;0.60;;;13.60;99.90;;;;;;5475287;26;20446;-69
2024/04/09 09:34:40;;;;;;;2.90;0.67;;;13.70;99.90;;;;;;5473844;26;20575;-69
2024/04/09 09:37:07;;;;;;;2.93;0.70;;;13.60;99.90;;;;;;5414057;26;20455;-69
2024/04/09 09:39:35;;;;;;;1.90;0.87;;;13.60;99.90;;;;;;5473566;26;20443;-68
2024/04/09 09:42:01;;;;;;;4.20;0.80;;;13.50;99.90;;;;;;5473332;26;20465;-69
2024/04/09 09:44:33;;;;;;;4.30;0.90;;;13.60;99.90;;;;;;5443743;26;20479;-69
2024/04/09 09:46:59;;;;;;;2.40;1.00;;;13.70;99.90;;;;;;5473266;26;20448;-70
2024/04/09 09:49:26;;;;;;;1.43;0.63;;;13.60;99.90;;;;;;5473577;26;20536;-69
2024/04/09 09:51:53;;;;;;;2.87;0.67;;;13.50;99.90;;;;;;5443453;26;20961;-70
2024/04/09 09:54:18;;;;;;;1.23;0.70;;;13.20;99.90;;;;;;5414014;26;20485;-69
2024/04/09 09:56:49;;;;;;;3.17;0.90;;;13.10;99.90;;;;;;5473442;26;20562;-68
2024/04/09 09:59:20;;;;;;;2.70;0.70;;;13.10;99.90;;;;;;5472795;26;20346;-69
2024/04/09 10:01:49;;;;;;;5.97;0.90;;;13.10;99.90;;;;;;5444554;26;20439;-70
2024/04/09 10:04:16;;;;;;;1.43;0.67;;;13.30;99.90;;;;;;5414101;26;20583;-69
2024/04/09 10:06:42;;;;;;;0.90;0.60;;;13.40;99.90;;;;;;5473105;26;20445;-69
2024/04/09 10:09:08;;;;;;;1.00;0.60;;;13.30;99.90;;;;;;5442680;26;20515;-69
2024/04/09 10:11:43;;;;;;;3.23;0.77;;;13.00;99.90;;;;;;5472941;26;20386;-69
2024/04/09 10:14:09;;;;;;;1.63;0.60;;;13.00;99.90;;;;;;5442444;26;20283;-69
2024/04/09 10:16:34;;;;;;;1.00;0.50;;;13.00;99.90;;;;;;5442540;26;20463;-69
2024/04/09 10:19:01;;;;;;;1.23;0.80;;;12.90;99.90;;;;;;5413255;26;20286;-70
2024/04/09 10:21:28;;;;;;;0.97;0.60;;;13.00;99.90;;;;;;5473028;26;20366;-69
2024/04/09 10:23:59;;;;;;;1.07;0.60;;;13.00;99.90;;;;;;5442846;26;20466;-69
2024/04/09 10:26:26;;;;;;;0.90;0.53;;;12.90;99.90;;;;;;5474828;26;20497;-70
2024/04/09 10:29:08;;;;;;;2.00;0.70;;;13.00;99.90;;;;;;5473164;26;20445;-69
2024/04/09 10:31:43;;;;;;;2.80;0.90;;;13.10;99.90;;;;;;5472724;26;20507;-68
2024/04/09 10:34:09;;;;;;;1.40;0.83;;;13.10;99.90;;;;;;5472778;26;20869;-70
2024/04/09 10:36:36;;;;;;;1.20;0.73;;;12.90;99.90;;;;;;5474613;26;20444;-70
2024/04/09 10:39:03;;;;;;;0.80;0.70;;;13.00;99.90;;;;;;5474655;26;20896;-70
2024/04/09 10:41:29;;;;;;;1.37;0.70;;;13.20;99.90;;;;;;5473074;26;20462;-69
2024/04/09 10:43:54;;;;;;;1.57;0.90;;;13.10;99.90;;;;;;5472782;26;20528;-70
2024/04/09 10:46:22;;;;;;;1.83;0.60;;;13.20;99.90;;;;;;5473728;26;20298;-70
2024/04/09 10:48:48;;;;;;;1.50;0.90;;;13.20;99.90;;;;;;5473875;26;20858;-70
2024/04/09 10:51:14;;;;;;;2.27;0.70;;;13.10;99.90;;;;;;5414231;26;20478;-71
2024/04/09 10:53:40;;;;;;;0.90;0.60;;;12.90;99.90;;;;;;5474324;26;20237;-71
2024/04/09 10:56:07;;;;;;;1.27;0.70;;;12.90;99.90;;;;;;5442716;26;20691;-70
2024/04/09 10:58:37;;;;;;;1.57;0.60;;;13.00;99.90;;;;;;5473118;26;20213;-70
2024/04/09 11:01:04;;;;;;;1.20;0.60;;;13.00;99.90;;;;;;5441681;26;20573;-70
2024/04/09 11:03:30;;;;;;;1.93;0.70;;;13.10;99.90;;;;;;5442452;26;20478;-68
2024/04/09 11:05:56;;;;;;;1.60;0.60;;;13.30;99.90;;;;;;5472809;26;20487;-70
2024/04/09 11:08:32;;;;;;;2.90;1.17;;;13.20;99.90;;;;;;5474550;26;20329;-70
2024/04/09 11:11:02;;;;;;;1.03;0.60;;;13.20;99.90;;;;;;5474429;26;20510;-69
2024/04/09 11:13:29;;;;;;;2.43;0.60;;;13.00;99.90;;;;;;5472949;26;21056;-68
2024/04/09 11:15:55;;;;;;;1.07;0.63;;;12.90;99.90;;;;;;5474681;26;20498;-70
2024/04/09 11:18:21;;;;;;;2.70;0.50;;;13.10;99.90;;;;;;5473080;26;20442;-70
2024/04/09 11:20:55;;;;;;;1.77;0.70;;;13.10;99.90;;;;;;5443097;26;20520;-68
2024/04/09 11:23:25;;;;;;;3.10;0.63;;;13.00;99.90;;;;;;5478405;26;20287;-70
2024/04/09 11:25:52;;;;;;;1.50;0.70;;;12.60;99.90;;;;;;5474177;26;20455;-70
2024/04/09 11:28:19;;;;;;;2.63;0.90;;;12.60;99.90;;;;;;5476933;26;20565;-70
2024/04/09 11:30:50;;;;;;;1.00;0.60;;;12.80;99.90;;;;;;5416139;26;20892;-70
2024/04/09 11:33:16;;;;;;;1.30;0.67;;;12.60;99.90;;;;;;5477970;26;20890;-70
2024/04/09 11:35:42;;;;;;;0.97;0.70;;;12.40;99.90;;;;;;5476354;26;20794;-70
2024/04/09 11:38:09;;;;;;;1.83;1.00;;;12.40;99.90;;;;;;5476343;26;20785;-69
2024/04/09 11:40:37;;;;;;;1.17;0.70;;;12.30;99.90;;;;;;5476933;26;20991;-69
2024/04/09 11:43:03;;;;;;;1.90;0.70;;;12.20;99.90;;;;;;5416061;26;20822;-69
2024/04/09 11:45:34;;;;;;;1.10;0.70;;;12.10;99.90;;;;;;5475001;26;20479;-68
2024/04/09 11:48:00;;;;;;;1.23;0.80;;;12.10;99.90;;;;;;5476812;26;20527;-69
2024/04/09 11:50:26;;;;;;;1.80;1.03;;;12.30;99.90;;;;;;5444948;26;20449;-68
2024/04/09 11:52:52;;;;;;;1.67;0.80;;;12.20;99.90;;;;;;5474163;26;20244;-69
2024/04/09 11:55:18;;;;;;;1.57;0.60;;;12.20;99.90;;;;;;5475353;26;20442;-69
2024/04/09 11:57:46;;;;;;;2.57;1.00;;;12.40;99.90;;;;;;5475269;26;21051;-69
2024/04/09 12:00:12;;;;;;;1.43;0.70;;;12.40;99.90;;;;;;5476682;26;20461;-68
2024/04/09 12:02:45;;;;;;;0.93;0.70;;;12.40;99.90;;;;;;5474726;26;20858;-69
2024/04/09 12:05:12;;;;;;;1.30;0.90;;;12.50;99.90;;;;;;5474949;26;20481;-68
2024/04/09 12:07:39;;;;;;;1.30;0.80;;;12.70;99.90;;;;;;5474497;26;20498;-69
2024/04/09 12:10:05;;;;;;;0.90;0.60;;;12.80;99.90;;;;;;5444891;26;20460;-68
2024/04/09 12:12:31;;;;;;;1.40;0.80;;;12.50;99.90;;;;;;5414771;26;20451;-69
2024/04/09 12:14:57;;;;;;;1.77;0.63;;;12.50;99.90;;;;;;5476884;26;21098;-69
2024/04/09 12:17:23;;;;;;;1.20;0.80;;;12.60;99.90;;;;;;5474891;26;20449;-69
2024/04/09 12:19:48;;;;;;;3.53;1.03;;;12.70;99.90;;;;;;5474454;26;20437;-69
2024/04/09 12:22:15;;;;;;;1.53;0.60;;;12.70;99.90;;;;;;5474252;26;20249;-69
2024/04/09 12:24:44;;;;;;;1.67;0.80;;;12.70;99.90;;;;;;5474526;26;20232;-69
2024/04/09 12:27:11;;;;;;;0.93;0.60;;;12.70;99.90;;;;;;5476496;26;20443;-69
2024/04/09 12:29:36;;;;;;;0.90;0.63;;;12.50;99.90;;;;;;5474947;26;20790;-69
2024/04/09 12:32:03;;;;;;;1.97;0.70;;;12.70;99.90;;;;;;5474081;26;20439;-69
2024/04/09 12:34:30;;;;;;;2.10;0.90;;;12.80;99.90;;;;;;5475219;26;20235;-69
2024/04/09 12:36:55;;;;;;;1.10;0.67;;;13.00;99.90;;;;;;5474712;26;20493;-69
2024/04/09 12:39:24;;;;;;;1.90;1.00;;;13.20;99.90;;;;;;5414606;26;20503;-68
2024/04/09 12:41:54;;;;;;;1.63;0.80;;;12.90;99.70;;;;;;5476289;26;20298;-69